createdAt,value
2023-03-05T00:01:53.348Z,82.87
2023-03-05T00:06:00.681Z,83.44
2023-03-05T00:10:03.008Z,83.20
2023-03-05T00:14:07.563Z,83.49
2023-03-05T00:18:08.258Z,83.39
2023-03-05T00:22:08.902Z,84.32
2023-03-05T00:26:10.162Z,86.13
2023-03-05T00:30:16.760Z,86.81
2023-03-05T00:34:20.550Z,87.10
2023-03-05T00:38:20.920Z,87.32
2023-03-05T00:42:21.468Z,87.58
2023-03-05T00:46:27.630Z,87.58
2023-03-05T00:50:28.145Z,87.38
2023-03-05T00:54:28.896Z,87.11
2023-03-05T00:58:30.020Z,87.32
2023-03-05T01:02:34.799Z,87.61
2023-03-05T01:06:35.418Z,87.97
2023-03-05T01:10:35.978Z,87.97
2023-03-05T01:14:36.918Z,87.92
2023-03-05T01:18:41.737Z,87.74
2023-03-05T01:22:42.718Z,87.82
2023-03-05T01:26:43.474Z,87.22
2023-03-05T01:30:43.882Z,87.75
2023-03-05T01:34:47.821Z,87.62
2023-03-05T01:38:50.781Z,87.29
2023-03-05T01:42:52.831Z,87.38
2023-03-05T01:46:53.703Z,87.56
2023-03-05T01:50:57.520Z,87.29
2023-03-05T01:55:04.454Z,87.69
2023-03-05T01:59:06.504Z,87.76
2023-03-05T02:03:12.705Z,87.54
2023-03-05T02:07:17.534Z,87.96
2023-03-05T02:11:18.314Z,87.57
2023-03-05T02:15:20.577Z,87.45
2023-03-05T02:19:21.339Z,86.84
2023-03-05T02:23:27.428Z,86.81
2023-03-05T02:27:38.319Z,86.88
2023-03-05T02:31:39.205Z,86.81
2023-03-05T02:35:40.387Z,87.29
2023-03-05T02:39:43.650Z,87.33
2023-03-05T02:43:44.478Z,87.33
2023-03-05T02:47:45.939Z,87.61
2023-03-05T02:51:46.389Z,87.23
2023-03-05T02:55:50.318Z,86.15
2023-03-05T02:59:51.143Z,85.85
2023-03-05T03:03:51.432Z,85.01
2023-03-05T03:07:52.011Z,84.56
2023-03-05T03:11:55.001Z,84.30
2023-03-05T03:16:05.854Z,83.88
2023-03-05T03:20:08.663Z,83.22
2023-03-05T03:24:09.844Z,82.99
2023-03-05T03:28:13.087Z,82.49
2023-03-05T03:32:13.773Z,82.52
2023-03-05T03:36:15.491Z,82.06
2023-03-05T03:40:16.623Z,82.15
2023-03-05T03:44:21.869Z,82.77
2023-03-05T03:48:22.163Z,82.67
2023-03-05T03:52:23.240Z,83.66
2023-03-05T03:56:23.836Z,83.96
2023-03-05T04:00:27.523Z,84.83
2023-03-05T04:04:29.424Z,84.91
2023-03-05T04:08:30.529Z,85.21
2023-03-05T04:12:31.020Z,85.62
2023-03-05T04:16:34.761Z,85.61
2023-03-05T04:20:35.205Z,85.36
2023-03-05T04:24:35.758Z,85.54
2023-03-05T04:28:36.701Z,85.94
2023-03-05T04:32:40.076Z,86.03
2023-03-05T04:36:40.559Z,85.54
2023-03-05T04:40:41.686Z,85.81
2023-03-05T04:44:42.271Z,86.10
2023-03-05T04:48:47.830Z,85.48
2023-03-05T04:52:49.378Z,86.36
2023-03-05T04:56:50.287Z,86.58
2023-03-05T05:00:50.715Z,86.57
2023-03-05T05:04:56.888Z,86.66
2023-03-05T05:08:57.717Z,86.96
2023-03-05T05:12:58.911Z,86.99
2023-03-05T05:17:00.127Z,86.61
2023-03-05T05:21:03.613Z,87.43
2023-03-05T05:25:05.323Z,87.55
2023-03-05T05:29:06.160Z,87.60
2023-03-05T05:33:07.058Z,87.61
2023-03-05T05:37:10.578Z,87.25
2023-03-05T05:41:14.303Z,87.14
2023-03-05T05:45:17.669Z,86.91
2023-03-05T05:49:18.184Z,87.45
2023-03-05T05:53:21.146Z,86.91
2023-03-05T05:57:21.655Z,86.50
2023-03-05T06:01:26.447Z,86.94
2023-03-05T06:05:27.255Z,86.34
2023-03-05T06:09:30.963Z,85.36
2023-03-05T06:13:31.532Z,85.58
2023-03-05T06:17:32.564Z,85.31
2023-03-05T06:21:33.999Z,84.99
2023-03-05T06:25:37.300Z,84.65
2023-03-05T06:29:37.642Z,84.07
2023-03-05T06:33:39.630Z,83.70
2023-03-05T06:37:40.053Z,84.01
2023-03-05T06:41:44.849Z,84.24
2023-03-05T06:45:45.587Z,84.17
2023-03-05T06:49:46.028Z,83.88
2023-03-05T06:53:49.290Z,83.43
2023-03-05T06:57:52.815Z,82.43
2023-03-05T07:01:53.645Z,82.31
2023-03-05T07:05:54.240Z,81.72
2023-03-05T07:09:54.942Z,81.20
2023-03-05T07:13:58.111Z,80.82
2023-03-05T07:17:58.780Z,79.71
2023-03-05T07:21:59.318Z,79.57
2023-03-05T07:25:59.927Z,79.28
2023-03-05T07:30:03.613Z,78.16
2023-03-05T07:34:07.471Z,77.87
2023-03-05T07:38:08.371Z,77.98
2023-03-05T07:42:09.387Z,76.89
2023-03-05T07:46:30.250Z,76.14
2023-03-05T07:50:30.610Z,76.43
2023-03-05T07:54:31.126Z,76.55
2023-03-05T07:58:31.528Z,76.56
2023-03-05T08:02:34.561Z,76.73
2023-03-05T08:06:35.371Z,76.98
2023-03-05T08:10:37.363Z,77.93
2023-03-05T08:14:38.011Z,79.58
2023-03-05T08:18:41.026Z,79.76
2023-03-05T08:22:42.123Z,79.15
2023-03-05T08:26:44.410Z,78.61
2023-03-05T08:30:45.198Z,77.81
2023-03-05T08:34:48.019Z,77.99
2023-03-05T08:38:48.767Z,77.06
2023-03-05T08:42:49.561Z,75.49
2023-03-05T08:46:50.176Z,74.32
2023-03-05T08:50:53.410Z,73.35
2023-03-05T08:54:54.227Z,71.24
2023-03-05T08:58:54.624Z,69.07
2023-03-05T09:02:54.970Z,69.48
2023-03-05T09:06:58.377Z,69.45
2023-03-05T09:10:59.481Z,70.53
2023-03-05T09:15:00.396Z,69.77
2023-03-05T09:19:01.610Z,68.67
2023-03-05T09:23:04.826Z,66.73
2023-03-05T09:27:05.350Z,66.84
2023-03-05T09:31:07.641Z,66.21
2023-03-05T09:35:10.121Z,64.59
2023-03-05T09:39:15.676Z,63.91
2023-03-05T09:43:32.919Z,62.58
2023-03-05T09:47:54.024Z,63.15
2023-03-05T09:52:07.373Z,63.68
2023-03-05T09:56:19.089Z,63.84
2023-03-05T10:00:37.456Z,62.96
2023-03-05T10:04:51.544Z,62.98
2023-03-05T10:08:59.112Z,63.54
2023-03-05T10:13:08.486Z,63.41
2023-03-05T10:17:30.226Z,63.69
2023-03-05T10:21:40.198Z,62.95
2023-03-05T10:25:59.608Z,63.71
2023-03-05T10:30:21.884Z,64.34
2023-03-05T10:34:58.753Z,64.65
2023-03-05T10:39:58.254Z,63.83
2023-03-05T10:44:08.269Z,64.03
2023-03-05T10:48:24.449Z,63.90
2023-03-05T10:52:33.966Z,64.40
2023-03-05T10:56:35.073Z,63.55
2023-03-05T11:00:35.526Z,64.05
2023-03-05T11:04:42.302Z,64.22
2023-03-05T11:08:42.900Z,64.20
2023-03-05T11:12:43.628Z,62.74
2023-03-05T11:16:53.534Z,61.51
2023-03-05T11:21:12.750Z,59.81
2023-03-05T11:25:22.914Z,58.65
2023-03-05T11:29:33.686Z,58.41
2023-03-05T11:33:35.231Z,58.83
2023-03-05T11:37:38.483Z,59.22
2023-03-05T11:41:42.975Z,59.95
2023-03-05T11:45:45.539Z,60.18
2023-03-05T11:49:50.685Z,58.61
2023-03-05T11:54:01.968Z,58.41
2023-03-05T11:58:25.489Z,57.58
2023-03-05T12:02:29.674Z,58.41
2023-03-05T12:06:42.526Z,59.18
2023-03-05T12:10:45.781Z,58.31
2023-03-05T12:14:54.516Z,58.74
2023-03-05T12:19:30.939Z,60.13
2023-03-05T12:23:31.582Z,60.25
2023-03-05T12:27:42.368Z,61.52
2023-03-05T12:31:45.711Z,61.78
2023-03-05T12:35:48.021Z,61.89
2023-03-05T12:40:05.057Z,61.62
2023-03-05T12:44:26.575Z,62.41
2023-03-05T12:48:47.390Z,61.81
2023-03-05T12:52:49.829Z,62.06
2023-03-05T12:56:51.114Z,61.92
2023-03-05T13:01:03.205Z,60.34
2023-03-05T13:05:08.867Z,60.66
2023-03-05T13:09:19.608Z,58.74
2023-03-05T13:13:21.476Z,58.84
2023-03-05T13:17:41.262Z,57.47
2023-03-05T13:21:41.777Z,55.17
2023-03-05T13:25:42.319Z,54.85
2023-03-05T13:29:55.310Z,55.35
2023-03-05T13:34:08.408Z,54.71
2023-03-05T13:38:17.776Z,55.17
2023-03-05T13:42:22.001Z,55.93
2023-03-05T13:46:33.456Z,56.29
2023-03-05T13:50:39.907Z,56.51
2023-03-05T13:54:41.017Z,56.25
2023-03-05T13:58:52.556Z,56.29
2023-03-05T14:02:53.314Z,55.14
2023-03-05T14:07:02.759Z,55.54
2023-03-05T14:11:16.542Z,55.25
2023-03-05T14:15:27.814Z,55.20
2023-03-05T14:19:40.863Z,55.49
2023-03-05T14:23:47.205Z,55.64
2023-03-05T14:27:51.089Z,55.31
2023-03-05T14:31:55.192Z,54.89
2023-03-05T14:35:56.371Z,54.17
2023-03-05T14:40:05.900Z,53.61
2023-03-05T14:44:14.140Z,54.68
2023-03-05T14:48:17.735Z,53.69
2023-03-05T14:52:22.544Z,53.08
2023-03-05T14:56:29.197Z,53.08
2023-03-05T15:00:31.776Z,53.66
2023-03-05T15:04:32.155Z,54.82
2023-03-05T15:08:34.839Z,55.84
2023-03-05T15:12:38.680Z,56.51
2023-03-05T15:16:39.631Z,57.03
2023-03-05T15:20:40.268Z,56.80
2023-03-05T15:24:40.691Z,56.38
2023-03-05T15:28:45.261Z,56.23
2023-03-05T15:32:45.657Z,56.51
2023-03-05T15:36:48.706Z,56.52
2023-03-05T15:40:49.513Z,57.45
2023-03-05T15:44:52.815Z,57.82
2023-03-05T15:48:53.544Z,58.07
2023-03-05T15:52:54.498Z,58.41
2023-03-05T15:56:55.519Z,58.69
2023-03-05T16:00:58.609Z,58.41
2023-03-05T16:04:59.187Z,58.49
2023-03-05T16:09:05.676Z,58.35
2023-03-05T16:13:12.100Z,58.38
2023-03-05T16:17:18.347Z,58.55
2023-03-05T16:21:18.866Z,59.08
2023-03-05T16:25:20.036Z,59.33
2023-03-05T16:29:20.511Z,59.76
2023-03-05T16:33:27.469Z,59.83
2023-03-05T16:37:28.602Z,59.85
2023-03-05T16:41:30.435Z,60.05
2023-03-05T16:45:31.063Z,60.59
2023-03-05T16:49:35.617Z,61.41
2023-03-05T16:53:36.716Z,61.52
2023-03-05T16:57:37.530Z,62.45
2023-03-05T17:01:37.858Z,62.03
2023-03-05T17:05:43.598Z,62.56
2023-03-05T17:09:44.704Z,62.57
2023-03-05T17:13:48.979Z,62.42
2023-03-05T17:17:50.071Z,62.51
2023-03-05T17:21:53.731Z,62.92
2023-03-05T17:25:55.640Z,63.11
2023-03-05T17:29:56.283Z,63.43
2023-03-05T17:33:58.240Z,63.94
2023-03-05T17:38:02.927Z,63.99
2023-03-05T17:42:03.626Z,63.94
2023-03-05T17:46:04.080Z,63.90
2023-03-05T17:50:05.804Z,64.08
2023-03-05T17:54:09.461Z,64.45
2023-03-05T17:58:10.074Z,65.13
2023-03-05T18:02:11.311Z,64.89
2023-03-05T18:06:11.907Z,65.28
2023-03-05T18:10:18.105Z,64.89
2023-03-05T18:14:19.010Z,64.94
2023-03-05T18:18:22.313Z,65.46
2023-03-05T18:22:23.224Z,66.12
2023-03-05T18:26:26.560Z,66.00
2023-03-05T18:30:28.189Z,66.56
2023-03-05T18:34:29.747Z,67.06
2023-03-05T18:38:32.683Z,67.93
2023-03-05T18:42:36.010Z,68.08
2023-03-05T18:46:36.777Z,68.14
2023-03-05T18:50:37.389Z,68.27
2023-03-05T18:54:37.828Z,68.56
2023-03-05T18:58:41.320Z,68.41
2023-03-05T19:02:41.906Z,68.38
2023-03-05T19:06:42.432Z,68.76
2023-03-05T19:10:43.110Z,69.09
2023-03-05T19:14:46.220Z,69.57
2023-03-05T19:18:49.975Z,69.48
2023-03-05T19:22:51.079Z,69.51
2023-03-05T19:26:55.483Z,69.34
2023-03-05T19:30:59.465Z,69.39
2023-03-05T19:35:01.213Z,69.74
2023-03-05T19:39:01.752Z,69.86
2023-03-05T19:43:02.604Z,69.99
2023-03-05T19:47:06.615Z,70.01
2023-03-05T19:51:12.041Z,70.44
2023-03-05T19:55:14.886Z,70.63
2023-03-05T19:59:18.216Z,70.35
2023-03-05T20:03:21.718Z,70.41
2023-03-05T20:07:25.251Z,70.48
2023-03-05T20:11:27.099Z,70.70
2023-03-05T20:15:29.815Z,71.29
2023-03-05T20:19:34.763Z,71.49
2023-03-05T20:23:35.103Z,71.91
2023-03-05T20:27:37.780Z,71.65
2023-03-05T20:31:40.113Z,71.81
2023-03-05T20:35:43.823Z,72.10
2023-03-05T20:39:44.324Z,72.39
2023-03-05T20:43:49.017Z,72.71
2023-03-05T20:47:50.539Z,72.82
2023-03-05T20:51:54.468Z,73.00
2023-03-05T20:55:55.039Z,73.20
2023-03-05T20:59:55.714Z,73.89
2023-03-05T21:03:57.335Z,73.53
2023-03-05T21:08:04.327Z,73.96
2023-03-05T21:12:04.837Z,73.78
2023-03-05T21:16:10.838Z,73.71
2023-03-05T21:20:16.387Z,73.91
2023-03-05T21:24:21.544Z,73.81
2023-03-05T21:28:22.500Z,74.18
2023-03-05T21:32:23.429Z,73.86
2023-03-05T21:36:23.825Z,73.86
2023-03-05T21:40:27.679Z,73.66
2023-03-05T21:44:28.363Z,74.14
2023-03-05T21:48:29.024Z,74.46
2023-03-05T21:52:29.704Z,74.11
2023-03-05T21:56:33.734Z,73.66
2023-03-05T22:00:34.292Z,74.61
2023-03-05T22:04:34.757Z,74.48
2023-03-05T22:08:35.226Z,75.06
2023-03-05T22:12:51.938Z,75.40
2023-03-05T22:16:53.830Z,75.27
2023-03-05T22:20:55.478Z,75.08
2023-03-05T22:24:56.110Z,75.37
2023-03-05T22:28:59.565Z,75.59
2023-03-05T22:33:00.100Z,75.42
2023-03-05T22:37:01.024Z,75.09
2023-03-05T22:41:01.287Z,74.94
2023-03-05T22:45:04.496Z,75.09
2023-03-05T22:49:05.943Z,75.20
2023-03-05T22:53:06.459Z,75.08
2023-03-05T22:57:08.768Z,75.23
2023-03-05T23:01:19.394Z,75.24
2023-03-05T23:05:21.487Z,74.81
2023-03-05T23:09:22.400Z,75.04
2023-03-05T23:13:22.735Z,75.22
2023-03-05T23:17:28.935Z,75.04
2023-03-05T23:21:29.732Z,75.38
2023-03-05T23:25:34.866Z,75.14
2023-03-05T23:29:47.299Z,75.33
2023-03-05T23:33:50.514Z,75.68
2023-03-05T23:37:51.753Z,76.01
2023-03-05T23:41:52.314Z,76.45
2023-03-05T23:45:55.020Z,76.91
2023-03-05T23:49:59.361Z,77.41
2023-03-05T23:53:59.692Z,77.00
2023-03-05T23:58:00.463Z,76.66
